createdAt,value
2019-03-22T00:02:03.530Z,61.28
2019-03-22T00:04:33.545Z,62.95
2019-03-22T00:07:03.652Z,61.65
2019-03-22T00:09:34.585Z,61.95
2019-03-22T00:12:04.570Z,61.85
2019-03-22T00:14:36.873Z,61.65
2019-03-22T00:17:06.462Z,62.00
2019-03-22T00:19:36.649Z,59.95
2019-03-22T00:22:06.796Z,64.20
2019-03-22T00:24:36.932Z,60.58
2019-03-22T00:27:16.002Z,63.95
2019-03-22T00:29:39.999Z,60.58
2019-03-22T00:32:10.091Z,61.33
2019-03-22T00:34:40.210Z,66.80
2019-03-22T00:37:10.366Z,66.40
2019-03-22T00:39:40.549Z,63.38
2019-03-22T00:42:10.602Z,69.15
2019-03-22T00:44:40.609Z,65.42
2019-03-22T00:47:10.665Z,65.10
2019-03-22T00:49:41.072Z,68.83
2019-03-22T00:52:11.151Z,66.02
2019-03-22T00:54:41.311Z,70.35
2019-03-22T00:57:11.531Z,70.47
2019-03-22T00:59:41.737Z,71.22
2019-03-22T01:02:11.528Z,69.72
2019-03-22T01:04:41.701Z,76.57
2019-03-22T01:07:12.010Z,71.00
2019-03-22T01:09:43.087Z,72.53
2019-03-22T01:12:13.104Z,75.57
2019-03-22T01:14:43.183Z,77.50
2019-03-22T01:17:13.137Z,78.42
2019-03-22T01:19:43.125Z,81.17
2019-03-22T01:22:13.638Z,76.17
2019-03-22T01:24:46.018Z,78.15
2019-03-22T01:27:16.084Z,78.30
2019-03-22T01:29:46.121Z,79.90
2019-03-22T01:32:16.398Z,77.47
2019-03-22T01:34:46.483Z,79.10
2019-03-22T01:37:16.436Z,80.92
2019-03-22T01:39:47.446Z,74.05
2019-03-22T01:42:19.038Z,81.72
2019-03-22T01:44:49.158Z,83.35
2019-03-22T01:47:19.272Z,82.88
2019-03-22T01:49:49.226Z,81.82
2019-03-22T01:52:19.384Z,78.15
2019-03-22T01:54:53.695Z,79.32
2019-03-22T01:57:23.917Z,80.05
2019-03-22T01:59:53.910Z,79.72
2019-03-22T02:02:23.875Z,75.92
2019-03-22T02:04:54.023Z,76.60
2019-03-22T02:07:24.097Z,75.75
2019-03-22T02:09:54.843Z,74.55
2019-03-22T02:12:24.979Z,73.70
2019-03-22T02:14:54.928Z,76.42
2019-03-22T02:17:24.886Z,76.50
2019-03-22T02:19:55.024Z,73.07
2019-03-22T02:22:25.020Z,71.33
2019-03-22T02:24:55.105Z,68.62
2019-03-22T02:27:25.058Z,74.45
2019-03-22T02:29:55.035Z,76.72
2019-03-22T02:32:25.379Z,76.22
2019-03-22T02:34:55.401Z,75.35
2019-03-22T02:37:25.510Z,77.05
2019-03-22T02:39:55.556Z,76.17
2019-03-22T02:42:26.007Z,78.78
2019-03-22T02:45:02.472Z,76.40
2019-03-22T02:47:33.064Z,75.25
2019-03-22T02:50:17.152Z,74.30
2019-03-22T02:52:37.004Z,77.53
2019-03-22T02:55:08.588Z,76.75
2019-03-22T02:57:38.665Z,72.47
2019-03-22T03:00:16.395Z,71.37
2019-03-22T03:02:46.398Z,70.80
2019-03-22T03:05:16.198Z,69.35
2019-03-22T03:07:46.477Z,69.35
2019-03-22T03:10:17.603Z,69.75
2019-03-22T03:12:47.994Z,68.60
2019-03-22T03:15:18.964Z,60.65
2019-03-22T03:17:49.057Z,65.32
2019-03-22T03:20:19.105Z,63.78
2019-03-22T03:22:49.473Z,65.05
2019-03-22T03:25:19.707Z,64.35
2019-03-22T03:27:49.462Z,63.38
2019-03-22T03:30:20.616Z,61.68
2019-03-22T03:32:51.865Z,58.55
2019-03-22T03:35:21.940Z,58.70
2019-03-22T03:37:51.970Z,56.60
2019-03-22T03:40:21.996Z,55.25
2019-03-22T03:42:52.098Z,52.17
2019-03-22T03:45:38.019Z,60.83
2019-03-22T03:48:11.589Z,61.88
2019-03-22T03:50:41.613Z,61.10
2019-03-22T03:53:11.775Z,59.48
2019-03-22T03:55:41.730Z,61.10
2019-03-22T03:58:11.867Z,56.98
2019-03-22T04:00:41.872Z,57.13
2019-03-22T04:03:12.092Z,61.42
2019-03-22T04:05:42.097Z,61.68
2019-03-22T04:08:12.060Z,55.88
2019-03-22T04:10:43.059Z,64.47
2019-03-22T04:13:13.161Z,58.73
2019-03-22T04:15:43.374Z,58.13
2019-03-22T04:18:13.377Z,61.70
2019-03-22T04:20:43.581Z,60.12
2019-03-22T04:23:13.645Z,64.10
2019-03-22T04:25:43.770Z,64.37
2019-03-22T04:28:14.081Z,62.40
2019-03-22T04:30:44.321Z,57.83
2019-03-22T04:33:14.419Z,64.53
2019-03-22T04:35:44.370Z,62.58
2019-03-22T04:38:14.440Z,66.10
2019-03-22T04:40:45.766Z,58.78
2019-03-22T04:43:15.830Z,63.30
2019-03-22T04:45:47.215Z,64.70
2019-03-22T04:48:20.455Z,62.73
2019-03-22T04:50:52.741Z,60.20
2019-03-22T04:53:25.477Z,58.25
2019-03-22T04:55:59.559Z,62.08
2019-03-22T04:58:31.363Z,61.15
2019-03-22T05:01:01.879Z,56.98
2019-03-22T05:03:33.855Z,58.10
2019-03-22T05:06:06.021Z,56.68
2019-03-22T05:08:38.880Z,54.35
2019-03-22T05:11:15.551Z,57.30
2019-03-22T05:13:48.041Z,57.05
2019-03-22T05:16:20.829Z,56.10
2019-03-22T05:18:52.633Z,56.35
2019-03-22T05:21:25.672Z,57.00
2019-03-22T05:23:58.852Z,55.85
2019-03-22T05:26:30.878Z,56.42
2019-03-22T05:29:13.188Z,57.80
2019-03-22T05:32:05.080Z,53.83
2019-03-22T05:34:35.254Z,48.23
2019-03-22T05:37:05.687Z,57.80
2019-03-22T05:39:35.839Z,55.92
2019-03-22T05:42:05.824Z,58.00
2019-03-22T05:44:35.999Z,57.50
2019-03-22T05:47:06.067Z,57.13
2019-03-22T05:49:36.178Z,54.98
2019-03-22T05:52:06.223Z,57.85
2019-03-22T05:54:36.265Z,56.98
2019-03-22T05:57:13.409Z,57.55
2019-03-22T05:59:42.840Z,57.90
2019-03-22T06:02:10.008Z,51.85
2019-03-22T06:04:40.479Z,55.83
2019-03-22T06:07:10.412Z,56.63
2019-03-22T06:09:40.783Z,56.42
2019-03-22T06:12:11.704Z,58.23
2019-03-22T06:14:41.737Z,56.90
2019-03-22T06:17:11.785Z,58.87
2019-03-22T06:19:41.976Z,58.20
2019-03-22T06:22:12.122Z,57.33
2019-03-22T06:24:42.351Z,60.80
2019-03-22T06:27:12.704Z,60.70
2019-03-22T06:29:53.378Z,58.68
2019-03-22T06:32:14.469Z,58.80
2019-03-22T06:34:44.412Z,59.60
2019-03-22T06:37:14.396Z,57.75
2019-03-22T06:39:44.390Z,56.10
2019-03-22T06:42:14.525Z,54.33
2019-03-22T06:44:44.624Z,56.10
2019-03-22T06:47:14.599Z,56.73
2019-03-22T06:50:05.838Z,54.30
2019-03-22T06:52:35.925Z,54.80
2019-03-22T06:55:06.852Z,52.75
2019-03-22T06:57:37.115Z,55.58
2019-03-22T07:00:09.219Z,53.73
2019-03-22T07:02:39.425Z,52.83
2019-03-22T07:05:09.462Z,51.77
2019-03-22T07:07:40.538Z,52.13
2019-03-22T07:10:10.863Z,52.05
2019-03-22T07:12:41.672Z,52.98
2019-03-22T07:15:11.771Z,52.30
2019-03-22T07:17:41.706Z,54.25
2019-03-22T07:20:12.137Z,53.95
2019-03-22T07:22:42.135Z,55.03
2019-03-22T07:25:12.386Z,53.20
2019-03-22T07:27:42.483Z,54.65
2019-03-22T07:30:18.810Z,54.50
2019-03-22T07:32:47.247Z,57.90
2019-03-22T07:35:17.263Z,57.95
2019-03-22T07:37:47.192Z,56.10
2019-03-22T07:40:17.504Z,55.40
2019-03-22T07:42:47.620Z,56.28
2019-03-22T07:45:17.631Z,58.00
2019-03-22T07:47:47.581Z,57.70
2019-03-22T07:50:17.743Z,58.00
2019-03-22T07:52:47.686Z,57.50
2019-03-22T07:55:17.710Z,58.15
2019-03-22T07:57:47.795Z,57.17
2019-03-22T08:00:29.874Z,56.35
2019-03-22T08:02:49.540Z,55.10
2019-03-22T08:05:19.505Z,53.78
2019-03-22T08:07:49.643Z,55.17
2019-03-22T08:10:19.700Z,54.67
2019-03-22T08:12:50.667Z,54.93
2019-03-22T08:15:29.214Z,51.25
2019-03-22T08:17:59.855Z,53.25
2019-03-22T08:20:30.540Z,53.42
2019-03-22T08:23:00.533Z,53.95
2019-03-22T08:25:32.417Z,50.45
2019-03-22T08:28:02.421Z,50.67
2019-03-22T08:30:42.586Z,52.75
2019-03-22T08:33:04.694Z,52.33
2019-03-22T08:35:34.749Z,51.48
2019-03-22T08:38:05.023Z,52.80
2019-03-22T08:40:35.122Z,52.23
2019-03-22T08:43:05.453Z,50.95
2019-03-22T08:45:35.486Z,52.80
2019-03-22T08:48:05.670Z,51.05
2019-03-22T08:50:35.724Z,52.55
2019-03-22T08:53:05.897Z,51.28
2019-03-22T08:55:35.938Z,51.35
2019-03-22T08:58:05.938Z,48.20
2019-03-22T09:00:39.469Z,49.45
2019-03-22T09:03:07.715Z,46.25
2019-03-22T09:05:37.725Z,47.78
2019-03-22T09:08:07.748Z,48.17
2019-03-22T09:10:37.956Z,45.12
2019-03-22T09:13:09.025Z,44.63
2019-03-22T09:15:42.219Z,42.27
2019-03-22T09:18:10.879Z,36.98
2019-03-22T09:20:41.129Z,34.43
2019-03-22T09:23:11.187Z,34.78
2019-03-22T09:25:41.217Z,33.58
2019-03-22T09:28:11.195Z,30.92
2019-03-22T09:30:41.286Z,29.30
2019-03-22T09:33:13.421Z,32.30
2019-03-22T09:35:43.096Z,33.50
2019-03-22T09:38:13.573Z,32.35
2019-03-22T09:40:43.754Z,34.60
2019-03-22T09:43:13.723Z,29.98
2019-03-22T09:45:46.513Z,30.05
2019-03-22T09:48:16.537Z,28.42
2019-03-22T09:50:46.724Z,28.55
2019-03-22T09:53:17.335Z,30.23
2019-03-22T09:55:47.388Z,29.37
2019-03-22T09:58:17.499Z,29.35
2019-03-22T10:00:48.749Z,31.33
2019-03-22T10:03:19.033Z,31.05
2019-03-22T10:05:49.248Z,30.43
2019-03-22T10:08:19.314Z,29.52
2019-03-22T10:10:49.680Z,30.82
2019-03-22T10:13:20.752Z,30.50
2019-03-22T10:15:50.739Z,27.67
2019-03-22T10:18:20.817Z,27.32
2019-03-22T10:20:50.813Z,28.75
2019-03-22T10:23:22.401Z,33.25
2019-03-22T10:25:52.730Z,35.10
2019-03-22T10:28:22.839Z,33.28
2019-03-22T10:30:53.062Z,30.45
2019-03-22T10:33:23.366Z,34.13
2019-03-22T10:35:53.575Z,32.75
2019-03-22T10:38:31.134Z,30.10
2019-03-22T10:40:55.535Z,30.82
2019-03-22T10:43:25.958Z,30.48
2019-03-22T10:45:56.090Z,25.40
2019-03-22T10:48:26.267Z,27.13
2019-03-22T10:50:56.620Z,27.67
2019-03-22T10:53:27.035Z,26.48
2019-03-22T10:55:57.061Z,26.37
2019-03-22T10:58:27.023Z,25.35
2019-03-22T11:00:56.980Z,26.30
2019-03-22T11:03:27.583Z,26.27
2019-03-22T11:05:57.619Z,25.43
2019-03-22T11:08:28.583Z,24.27
2019-03-22T11:10:58.549Z,24.92
2019-03-22T11:13:29.608Z,24.98
2019-03-22T11:15:59.735Z,24.07
2019-03-22T11:18:37.423Z,23.73
2019-03-22T11:21:05.554Z,23.80
2019-03-22T11:23:33.327Z,24.67
2019-03-22T11:26:04.458Z,26.15
2019-03-22T11:28:34.622Z,25.17
2019-03-22T11:31:05.004Z,25.52
2019-03-22T11:33:35.447Z,25.08
2019-03-22T11:36:05.392Z,24.63
2019-03-22T11:38:35.542Z,25.48
2019-03-22T11:41:05.522Z,24.70
2019-03-22T11:43:35.538Z,24.95
2019-03-22T11:46:05.488Z,24.87
2019-03-22T11:48:35.470Z,22.20
2019-03-22T11:51:05.804Z,24.02
2019-03-22T11:53:37.452Z,23.15
2019-03-22T11:56:09.390Z,24.72
2019-03-22T11:58:39.317Z,24.82
2019-03-22T12:01:19.131Z,26.77
2019-03-22T12:03:41.423Z,27.00
2019-03-22T12:06:11.466Z,31.77
2019-03-22T12:08:41.647Z,25.82
2019-03-22T12:11:11.725Z,33.25
2019-03-22T12:13:42.683Z,30.48
2019-03-22T12:16:12.632Z,35.20
2019-03-22T12:18:42.768Z,32.03
2019-03-22T12:21:12.906Z,33.08
2019-03-22T12:23:43.107Z,32.28
2019-03-22T12:26:13.119Z,31.15
2019-03-22T12:28:43.120Z,30.80
2019-03-22T12:31:13.127Z,31.50
2019-03-22T12:33:43.165Z,31.42
2019-03-22T12:36:13.209Z,27.67
2019-03-22T12:38:43.322Z,31.48
2019-03-22T12:41:13.401Z,34.85
2019-03-22T12:43:43.342Z,29.70
2019-03-22T12:46:13.312Z,35.17
2019-03-22T12:48:43.296Z,32.42
2019-03-22T12:51:13.321Z,35.75
2019-03-22T12:53:43.280Z,34.53
2019-03-22T12:56:13.209Z,31.52
2019-03-22T12:58:43.215Z,29.87
2019-03-22T13:01:13.257Z,29.50
2019-03-22T13:03:43.288Z,30.97
2019-03-22T13:06:13.221Z,31.45
2019-03-22T13:08:43.233Z,31.57
2019-03-22T13:11:13.175Z,33.98
2019-03-22T13:13:44.770Z,35.23
2019-03-22T13:16:14.750Z,33.55
2019-03-22T13:18:50.194Z,33.78
2019-03-22T13:21:16.574Z,33.92
2019-03-22T13:23:47.615Z,33.90
2019-03-22T13:26:17.567Z,30.25
2019-03-22T13:28:47.508Z,29.12
2019-03-22T13:31:17.562Z,27.98
2019-03-22T13:33:47.516Z,29.65
2019-03-22T13:36:17.452Z,31.05
2019-03-22T13:38:47.448Z,31.37
2019-03-22T13:41:17.684Z,33.30
2019-03-22T13:43:47.640Z,33.75
2019-03-22T13:46:17.746Z,34.27
2019-03-22T13:48:47.710Z,33.75
2019-03-22T13:51:17.785Z,34.05
2019-03-22T13:53:48.115Z,32.73
2019-03-22T13:56:18.032Z,34.23
2019-03-22T13:58:47.971Z,35.25
2019-03-22T14:01:17.980Z,34.03
2019-03-22T14:03:48.003Z,36.65
2019-03-22T14:06:18.210Z,40.23
2019-03-22T14:08:48.189Z,37.98
2019-03-22T14:11:18.195Z,38.90
2019-03-22T14:13:48.949Z,40.40
2019-03-22T14:16:18.903Z,40.65
2019-03-22T14:18:51.929Z,41.08
2019-03-22T14:21:21.915Z,40.52
2019-03-22T14:23:52.038Z,39.35
2019-03-22T14:26:21.969Z,39.65
2019-03-22T14:28:51.908Z,40.40
2019-03-22T14:31:23.527Z,39.58
2019-03-22T14:33:53.457Z,39.75
2019-03-22T14:36:23.384Z,40.70
2019-03-22T14:38:53.351Z,40.52
2019-03-22T14:41:23.372Z,38.50
2019-03-22T14:43:53.365Z,37.05
2019-03-22T14:46:23.539Z,33.25
2019-03-22T14:48:53.700Z,31.02
2019-03-22T14:51:23.615Z,30.88
2019-03-22T14:53:53.572Z,30.12
2019-03-22T14:56:23.505Z,28.17
2019-03-22T14:58:53.455Z,28.55
2019-03-22T15:01:23.420Z,29.77
2019-03-22T15:03:53.559Z,28.60
2019-03-22T15:06:23.578Z,28.50
2019-03-22T15:08:53.520Z,26.65
2019-03-22T15:11:23.574Z,27.80
2019-03-22T15:13:55.285Z,25.35
2019-03-22T15:16:28.323Z,24.75
2019-03-22T15:19:05.650Z,24.27
2019-03-22T15:21:46.459Z,24.72
2019-03-22T15:24:36.332Z,25.20
2019-03-22T15:27:10.594Z,26.45
2019-03-22T15:29:50.228Z,27.20
2019-03-22T15:32:35.486Z,26.87
2019-03-22T15:38:14.451Z,26.48
2019-03-22T15:40:44.453Z,26.80
2019-03-22T15:43:14.486Z,27.98
2019-03-22T15:45:44.516Z,27.70
2019-03-22T15:48:14.548Z,26.73
2019-03-22T15:50:44.555Z,25.62
2019-03-22T15:53:14.821Z,25.50
2019-03-22T15:55:44.791Z,26.15
2019-03-22T15:58:14.752Z,28.23
2019-03-22T16:00:44.760Z,26.62
2019-03-22T16:03:14.718Z,26.95
2019-03-22T16:05:44.811Z,27.60
2019-03-22T16:08:14.768Z,28.83
2019-03-22T16:10:44.772Z,31.93
2019-03-22T16:13:14.835Z,27.00
2019-03-22T16:15:45.465Z,23.57
2019-03-22T16:18:15.408Z,24.52
2019-03-22T16:20:45.390Z,24.40
2019-03-22T16:23:15.339Z,25.37
2019-03-22T16:25:45.314Z,25.27
2019-03-22T16:28:15.640Z,24.30
2019-03-22T16:30:45.605Z,28.15
2019-03-22T16:33:15.857Z,37.08
2019-03-22T16:35:45.855Z,35.58
2019-03-22T16:38:15.991Z,29.12
2019-03-22T16:40:46.102Z,27.75
2019-03-22T16:43:16.057Z,27.75
2019-03-22T16:45:46.235Z,30.57
2019-03-22T16:48:16.208Z,30.10
2019-03-22T16:50:46.148Z,36.77
2019-03-22T16:53:16.099Z,40.28
2019-03-22T16:55:46.070Z,27.10
2019-03-22T16:58:15.762Z,23.57
2019-03-22T17:00:45.619Z,24.67
2019-03-22T17:03:15.662Z,26.20
2019-03-22T17:05:45.657Z,28.00
2019-03-22T17:08:15.648Z,26.17
2019-03-22T17:10:45.250Z,27.85
2019-03-22T17:13:15.089Z,28.20
2019-03-22T17:15:46.196Z,29.42
2019-03-22T17:18:17.298Z,29.52
2019-03-22T17:20:47.273Z,33.70
2019-03-22T17:23:17.292Z,36.90
2019-03-22T17:25:47.326Z,37.15
2019-03-22T17:28:17.275Z,37.80
2019-03-22T17:30:47.238Z,37.40
2019-03-22T17:33:17.283Z,35.40
2019-03-22T17:35:47.514Z,37.28
2019-03-22T17:38:17.536Z,38.85
2019-03-22T17:40:47.834Z,37.83
2019-03-22T17:43:17.987Z,39.92
2019-03-22T17:45:47.995Z,39.85
2019-03-22T17:48:18.522Z,41.63
2019-03-22T17:50:48.735Z,43.25
2019-03-22T17:53:18.834Z,45.55
2019-03-22T17:55:49.404Z,49.05
2019-03-22T17:58:19.462Z,49.38
2019-03-22T18:00:49.642Z,49.85
2019-03-22T18:03:19.726Z,52.35
2019-03-22T18:05:49.671Z,53.35
2019-03-22T18:08:19.628Z,54.00
2019-03-22T18:10:49.611Z,52.98
2019-03-22T18:13:19.645Z,53.50
2019-03-22T18:15:49.644Z,54.40
2019-03-22T18:18:21.807Z,56.02
2019-03-22T18:20:51.824Z,57.08
2019-03-22T18:23:22.738Z,53.78
2019-03-22T18:25:52.840Z,55.50
2019-03-22T18:28:23.017Z,52.50
2019-03-22T18:30:53.013Z,55.15
2019-03-22T18:33:23.036Z,54.30
2019-03-22T18:35:53.155Z,57.10
2019-03-22T18:38:23.194Z,56.00
2019-03-22T18:40:53.202Z,51.23
2019-03-22T18:43:23.212Z,53.52
2019-03-22T18:45:53.229Z,50.30
2019-03-22T18:48:23.320Z,51.80
2019-03-22T18:50:56.891Z,52.17
2019-03-22T18:53:24.956Z,50.30
2019-03-22T18:55:54.916Z,49.03
2019-03-22T18:58:24.864Z,50.03
2019-03-22T19:00:54.879Z,50.30
2019-03-22T19:03:24.823Z,48.63
2019-03-22T19:05:54.849Z,50.48
2019-03-22T19:08:25.380Z,50.38
2019-03-22T19:10:55.488Z,49.13
2019-03-22T19:13:30.617Z,48.87
2019-03-22T19:15:57.582Z,50.55
2019-03-22T19:18:28.678Z,51.95
2019-03-22T19:20:58.775Z,53.42
2019-03-22T19:23:28.823Z,54.77
2019-03-22T19:25:58.904Z,53.65
2019-03-22T19:28:30.180Z,53.33
2019-03-22T19:31:00.165Z,52.00
2019-03-22T19:33:30.145Z,55.67
2019-03-22T19:36:00.086Z,54.77
2019-03-22T19:38:30.218Z,53.80
2019-03-22T19:41:00.256Z,52.90
2019-03-22T19:43:31.195Z,52.45
2019-03-22T19:46:01.204Z,55.80
2019-03-22T19:48:31.303Z,54.83
2019-03-22T19:51:01.304Z,58.25
2019-03-22T19:53:31.292Z,64.42
2019-03-22T19:56:01.590Z,77.70
2019-03-22T19:58:31.616Z,67.17
2019-03-22T20:01:01.729Z,61.63
2019-03-22T20:03:35.774Z,61.15
2019-03-22T20:06:05.770Z,64.47
2019-03-22T20:08:36.010Z,64.53
2019-03-22T20:11:06.115Z,69.53
2019-03-22T20:13:36.098Z,73.02
2019-03-22T20:16:06.231Z,78.17
2019-03-22T20:18:37.231Z,81.08
2019-03-22T20:21:07.233Z,82.65
2019-03-22T20:23:37.181Z,91.00
2019-03-22T20:26:07.462Z,91.85
2019-03-22T20:28:39.602Z,92.00
2019-03-22T20:31:09.962Z,92.10
2019-03-22T20:33:39.990Z,85.47
2019-03-22T20:36:10.004Z,84.47
2019-03-22T20:38:39.991Z,81.97
2019-03-22T20:41:10.009Z,81.32
2019-03-22T20:43:39.975Z,84.07
2019-03-22T20:46:10.043Z,84.62
2019-03-22T20:48:40.042Z,83.42
2019-03-22T20:51:10.062Z,85.32
2019-03-22T20:53:40.110Z,86.65
2019-03-22T20:56:11.419Z,91.53
2019-03-22T20:58:41.388Z,87.20
2019-03-22T21:01:11.439Z,92.80
2019-03-22T21:03:41.927Z,93.25
2019-03-22T21:06:12.174Z,97.53
2019-03-22T21:08:42.381Z,96.32
2019-03-22T21:11:12.537Z,99.22
2019-03-22T21:13:45.540Z,96.97
2019-03-22T21:16:16.317Z,98.82
2019-03-22T21:18:46.320Z,98.80
2019-03-22T21:21:16.517Z,99.00
2019-03-22T21:23:46.566Z,95.95
2019-03-22T21:26:18.758Z,96.82
2019-03-22T21:28:48.755Z,96.92
2019-03-22T21:31:19.038Z,96.70
2019-03-22T21:33:49.120Z,93.92
2019-03-22T21:36:20.489Z,95.25
2019-03-22T21:38:52.170Z,98.60
2019-03-22T21:41:22.400Z,96.63
2019-03-22T21:43:52.477Z,99.50
2019-03-22T21:46:22.470Z,100.38
2019-03-22T21:48:52.675Z,102.00
2019-03-22T21:51:23.004Z,97.78
2019-03-22T21:53:53.141Z,100.25
2019-03-22T21:56:23.155Z,95.50
2019-03-22T21:58:53.168Z,96.65
2019-03-22T22:01:23.418Z,99.90
2019-03-22T22:03:54.206Z,117.45
2019-03-22T22:06:24.271Z,101.45
2019-03-22T22:08:57.179Z,101.85
2019-03-22T22:11:27.235Z,106.10
2019-03-22T22:13:57.256Z,103.45
2019-03-22T22:16:27.276Z,103.60
2019-03-22T22:18:57.796Z,102.17
2019-03-22T22:21:27.837Z,105.30
2019-03-22T22:23:57.837Z,104.27
2019-03-22T22:26:27.818Z,103.72
2019-03-22T22:28:57.899Z,99.42
2019-03-22T22:31:29.247Z,99.60
2019-03-22T22:33:59.304Z,105.72
2019-03-22T22:36:30.468Z,101.85
2019-03-22T22:39:00.505Z,98.62
2019-03-22T22:41:32.370Z,96.92
2019-03-22T22:44:02.411Z,97.37
2019-03-22T22:46:32.447Z,95.62
2019-03-22T22:49:02.421Z,96.82
2019-03-22T22:51:32.361Z,96.30
2019-03-22T22:54:02.496Z,95.05
2019-03-22T22:56:32.507Z,95.97
2019-03-22T22:59:02.457Z,96.00
2019-03-22T23:01:33.463Z,96.67
2019-03-22T23:04:03.663Z,95.80
2019-03-22T23:06:33.803Z,90.28
2019-03-22T23:09:06.315Z,91.17
2019-03-22T23:11:37.960Z,91.42
2019-03-22T23:14:07.903Z,89.22
2019-03-22T23:16:37.910Z,87.62
2019-03-22T23:19:07.951Z,81.92
2019-03-22T23:21:38.186Z,81.87
2019-03-22T23:24:08.162Z,80.07
2019-03-22T23:26:38.178Z,82.00
2019-03-22T23:29:09.357Z,83.25
2019-03-22T23:31:39.453Z,81.87
2019-03-22T23:34:09.469Z,84.50
2019-03-22T23:36:40.384Z,81.67
2019-03-22T23:39:10.586Z,84.47
2019-03-22T23:41:40.651Z,83.35
2019-03-22T23:44:10.652Z,81.97
2019-03-22T23:46:40.637Z,81.08
2019-03-22T23:49:10.605Z,80.62
2019-03-22T23:51:41.384Z,76.12
2019-03-22T23:54:12.020Z,75.45
2019-03-22T23:56:42.057Z,77.82
2019-03-22T23:59:12.045Z,77.78
